Time;durP1;ratioP1;P1;durP2;ratioP2;P2;SDS_P1;SDS_P2;PMS_P1;PMS_P2;Temp;Humidity;BMP_temperature;BMP_pressure;BME280_temperature;BME280_humidity;BME280_pressure;Samples;Min_cycle;Max_cycle;Signal;HPM_P1;HPM_P2
2020/12/25 00:00:15;;;;;;;1.20;1.07;;;3.50;64.60;;;;;;5059277;28;38369;-78
2020/12/25 00:02:45;;;;;;;3.00;1.13;;;3.50;64.50;;;;;;5075267;28;37236;-78
2020/12/25 00:05:12;;;;;;;1.40;1.20;;;3.40;65.20;;;;;;5074308;28;40585;-78
2020/12/25 00:07:41;;;;;;;1.30;1.20;;;3.50;65.10;;;;;;5055986;28;37975;-79
2020/12/25 00:10:11;;;;;;;1.57;1.47;;;3.50;65.40;;;;;;5059817;28;38488;-78
2020/12/25 00:12:39;;;;;;;1.70;1.60;;;3.40;65.20;;;;;;5074176;28;37984;-78
2020/12/25 00:15:06;;;;;;;1.73;1.60;;;3.40;65.50;;;;;;5074102;28;40505;-79
2020/12/25 00:17:35;;;;;;;1.40;1.30;;;3.50;65.80;;;;;;5038895;28;37315;-78
2020/12/25 00:20:06;;;;;;;1.50;1.30;;;3.50;65.70;;;;;;5055598;28;37277;-79
2020/12/25 00:22:33;;;;;;;1.40;1.27;;;3.50;65.80;;;;;;5046664;28;36163;-79
2020/12/25 00:25:00;;;;;;;1.30;1.20;;;3.50;65.50;;;;;;5050424;28;39917;-79
2020/12/25 00:27:29;;;;;;;1.47;1.37;;;3.60;65.90;;;;;;5073773;28;39328;-79
2020/12/25 00:29:56;;;;;;;1.40;1.30;;;3.60;66.20;;;;;;5056349;28;37711;-81
2020/12/25 00:32:23;;;;;;;1.63;1.40;;;3.60;65.90;;;;;;5049652;28;36893;-79
2020/12/25 00:34:50;;;;;;;1.90;1.70;;;3.60;65.90;;;;;;5065525;28;40345;-79
2020/12/25 00:37:18;;;;;;;2.00;1.80;;;3.60;65.80;;;;;;5071293;28;39192;-78
2020/12/25 00:39:45;;;;;;;1.87;1.50;;;3.70;66.00;;;;;;5062832;28;36631;-77
2020/12/25 00:42:13;;;;;;;1.87;1.70;;;3.60;65.50;;;;;;5065861;28;38164;-77
2020/12/25 00:44:40;;;;;;;2.10;1.97;;;3.60;65.70;;;;;;5065728;28;40318;-77
2020/12/25 00:47:07;;;;;;;2.10;1.90;;;3.60;65.80;;;;;;5064353;28;40273;-76
2020/12/25 00:49:34;;;;;;;2.13;1.77;;;3.60;65.60;;;;;;5041380;28;36760;-77
2020/12/25 00:52:01;;;;;;;1.80;1.70;;;3.60;65.30;;;;;;5046711;28;36486;-77
2020/12/25 00:54:30;;;;;;;1.87;1.60;;;3.60;65.60;;;;;;5049678;28;38274;-78
2020/12/25 00:57:19;;;;;;;1.97;1.63;;;3.60;65.50;;;;;;5049981;28;39011;-78
2020/12/25 01:00:11;;;;;;;2.00;1.80;;;3.60;65.80;;;;;;5047153;28;36889;-78
2020/12/25 01:02:40;;;;;;;1.97;1.87;;;3.60;65.90;;;;;;5070471;28;37595;-78
2020/12/25 01:05:10;;;;;;;1.60;1.50;;;3.70;65.50;;;;;;5050157;28;38436;-78
2020/12/25 01:07:37;;;;;;;2.00;1.80;;;3.70;65.70;;;;;;5052617;28;40507;-78
2020/12/25 01:10:05;;;;;;;1.60;1.50;;;3.80;65.50;;;;;;5065056;28;38985;-78
2020/12/25 01:12:34;;;;;;;1.60;1.50;;;3.80;65.90;;;;;;5071362;28;36106;-78
2020/12/25 01:15:01;;;;;;;1.30;1.20;;;3.80;65.50;;;;;;5062896;28;39023;-78
2020/12/25 01:17:28;;;;;;;1.53;1.43;;;3.90;64.80;;;;;;5060431;28;39310;-77
2020/12/25 01:19:57;;;;;;;1.60;1.50;;;3.90;64.50;;;;;;5060370;28;38866;-77
2020/12/25 01:22:24;;;;;;;1.60;1.20;;;3.90;64.80;;;;;;5073142;28;37021;-77
2020/12/25 01:24:51;;;;;;;2.10;1.60;;;3.90;65.00;;;;;;5072868;28;40589;-77
2020/12/25 01:27:19;;;;;;;2.00;1.80;;;3.90;65.20;;;;;;5073141;28;38976;-77
2020/12/25 01:29:48;;;;;;;1.80;1.70;;;4.00;65.20;;;;;;5072863;28;38003;-78
2020/12/25 01:32:15;;;;;;;1.70;1.60;;;4.00;65.00;;;;;;5063932;28;38464;-78
2020/12/25 01:34:42;;;;;;;1.23;1.13;;;4.00;64.90;;;;;;5051958;28;38630;-78
2020/12/25 01:37:12;;;;;;;1.67;1.47;;;4.00;65.20;;;;;;5054545;28;38924;-78
2020/12/25 01:39:38;;;;;;;1.20;1.10;;;4.00;65.10;;;;;;5055192;28;37669;-78
2020/12/25 01:42:05;;;;;;;1.30;1.20;;;4.00;65.10;;;;;;5073078;28;36926;-78
2020/12/25 01:44:33;;;;;;;1.63;1.53;;;4.00;64.60;;;;;;5074789;28;40397;-76
2020/12/25 01:47:01;;;;;;;1.60;1.50;;;3.90;64.30;;;;;;5073043;28;40124;-77
2020/12/25 01:49:29;;;;;;;1.37;1.27;;;3.90;64.60;;;;;;5072091;28;38148;-76
2020/12/25 01:51:56;;;;;;;1.80;1.50;;;3.90;64.70;;;;;;5054395;28;36845;-77
2020/12/25 01:54:23;;;;;;;1.60;1.50;;;3.90;64.60;;;;;;5038223;28;38770;-77
2020/12/25 01:56:50;;;;;;;1.60;1.50;;;3.90;64.90;;;;;;5070721;28;39749;-77
2020/12/25 01:59:19;;;;;;;2.30;2.10;;;3.90;65.00;;;;;;5072071;28;39360;-77
2020/12/25 02:01:47;;;;;;;1.90;1.80;;;3.90;64.80;;;;;;5053591;28;36024;-77
2020/12/25 02:04:16;;;;;;;1.90;1.70;;;3.90;64.90;;;;;;5046381;28;40014;-78
2020/12/25 02:06:43;;;;;;;1.60;1.50;;;3.90;64.80;;;;;;5048290;28;37977;-76
2020/12/25 02:09:10;;;;;;;1.70;1.60;;;4.00;64.70;;;;;;5071370;28;37753;-76
2020/12/25 02:11:39;;;;;;;1.80;1.40;;;4.00;64.40;;;;;;5071698;28;37335;-77
2020/12/25 02:14:06;;;;;;;1.77;1.50;;;4.00;64.10;;;;;;5071847;28;39860;-77
2020/12/25 02:16:33;;;;;;;1.70;1.60;;;4.00;63.90;;;;;;5069643;28;38964;-76
2020/12/25 02:19:01;;;;;;;2.63;2.10;;;4.00;64.60;;;;;;5052162;28;38431;-77
2020/12/25 02:21:29;;;;;;;2.47;1.97;;;4.00;64.30;;;;;;5066105;28;38020;-78
2020/12/25 02:23:56;;;;;;;1.67;1.30;;;4.10;64.50;;;;;;5055468;28;38531;-77
2020/12/25 02:26:23;;;;;;;2.30;2.00;;;4.10;64.40;;;;;;5056797;28;38656;-77
2020/12/25 02:28:52;;;;;;;2.30;2.10;;;4.10;64.10;;;;;;5075162;28;38228;-77
2020/12/25 02:31:19;;;;;;;2.33;2.10;;;4.10;64.20;;;;;;5057432;28;36841;-77
2020/12/25 02:33:46;;;;;;;2.03;1.80;;;4.10;64.20;;;;;;5075899;28;40606;-77
2020/12/25 02:36:13;;;;;;;1.83;1.63;;;4.10;64.20;;;;;;5075536;28;39313;-77
2020/12/25 02:38:41;;;;;;;1.90;1.80;;;4.10;64.10;;;;;;5075337;28;38808;-78
2020/12/25 02:41:08;;;;;;;2.93;2.00;;;4.10;64.10;;;;;;5075442;28;36924;-77
2020/12/25 02:43:35;;;;;;;2.47;2.03;;;4.10;63.70;;;;;;5075229;28;39042;-77
2020/12/25 02:46:02;;;;;;;2.50;2.30;;;4.10;63.30;;;;;;5062024;28;39940;-77
2020/12/25 02:48:29;;;;;;;2.10;1.90;;;4.00;63.30;;;;;;5063804;28;37914;-77
2020/12/25 02:50:55;;;;;;;2.07;1.87;;;4.00;63.40;;;;;;5054686;28;37845;-77
2020/12/25 02:53:23;;;;;;;2.53;2.33;;;4.00;63.30;;;;;;5057551;28;39627;-77
2020/12/25 02:55:51;;;;;;;3.07;2.70;;;4.00;63.30;;;;;;5036657;28;38013;-77
2020/12/25 02:58:18;;;;;;;5.10;4.03;;;4.00;63.50;;;;;;5055509;28;37267;-77
2020/12/25 03:00:45;;;;;;;4.70;4.20;;;4.20;63.30;;;;;;5075090;28;37378;-77
2020/12/25 03:03:12;;;;;;;4.10;3.70;;;4.20;63.00;;;;;;5066858;28;39477;-77
2020/12/25 03:05:39;;;;;;;4.87;3.90;;;4.20;63.10;;;;;;5057911;28;40108;-77
2020/12/25 03:08:06;;;;;;;4.00;3.33;;;4.20;63.20;;;;;;5048317;28;37130;-77
2020/12/25 03:10:33;;;;;;;5.87;3.47;;;4.20;63.40;;;;;;5056548;28;36275;-77
2020/12/25 03:13:03;;;;;;;5.20;3.50;;;4.20;63.10;;;;;;5071424;28;39694;-77
2020/12/25 03:15:30;;;;;;;3.97;3.63;;;4.30;62.70;;;;;;5060490;28;40212;-77
2020/12/25 03:17:57;;;;;;;4.67;4.27;;;4.30;62.90;;;;;;5058379;28;37768;-77
2020/12/25 03:20:24;;;;;;;5.30;4.80;;;4.20;63.30;;;;;;5047341;28;36829;-77
2020/12/25 03:22:51;;;;;;;5.50;4.57;;;4.20;63.60;;;;;;5046200;28;40069;-77
2020/12/25 03:25:18;;;;;;;6.23;4.63;;;4.20;63.40;;;;;;5056678;28;39461;-77
2020/12/25 03:27:45;;;;;;;5.63;4.73;;;4.20;63.60;;;;;;5066051;28;38679;-77
2020/12/25 03:30:12;;;;;;;6.90;5.43;;;4.20;63.60;;;;;;5065572;28;37077;-77
2020/12/25 03:32:39;;;;;;;6.17;5.47;;;4.20;63.30;;;;;;5061484;28;39718;-77
2020/12/25 03:35:06;;;;;;;5.73;4.87;;;4.20;63.50;;;;;;5074158;28;39887;-78
2020/12/25 03:37:33;;;;;;;6.10;5.00;;;4.20;63.40;;;;;;5070566;28;38250;-78
2020/12/25 03:40:01;;;;;;;6.03;5.13;;;4.40;63.40;;;;;;5046357;28;35660;-78
2020/12/25 03:42:28;;;;;;;6.30;4.60;;;4.40;63.40;;;;;;5074121;28;39432;-77
2020/12/25 03:44:55;;;;;;;7.37;5.33;;;4.50;63.50;;;;;;5056189;28;37891;-78
2020/12/25 03:47:25;;;;;;;7.10;5.83;;;4.50;63.20;;;;;;5053941;28;38289;-78
2020/12/25 03:49:52;;;;;;;6.87;5.57;;;4.50;63.30;;;;;;5062969;28;38073;-78
2020/12/25 03:52:19;;;;;;;6.77;6.00;;;4.40;63.30;;;;;;5074379;28;40591;-78
2020/12/25 03:54:46;;;;;;;7.13;5.80;;;4.50;63.60;;;;;;5049709;28;38773;-78
2020/12/25 03:57:16;;;;;;;7.30;5.60;;;4.50;63.30;;;;;;5012420;28;38443;-77
2020/12/25 03:59:43;;;;;;;8.23;5.40;;;4.50;63.50;;;;;;5046040;28;37050;-78
2020/12/25 04:02:10;;;;;;;6.13;5.10;;;4.50;63.30;;;;;;5053623;28;40565;-77
2020/12/25 04:04:38;;;;;;;6.93;5.30;;;4.40;62.80;;;;;;5047398;28;38533;-79
2020/12/25 04:07:05;;;;;;;6.17;4.93;;;4.40;63.20;;;;;;5053784;28;38888;-78
2020/12/25 04:09:32;;;;;;;6.07;5.00;;;4.40;63.00;;;;;;5027401;28;36092;-78
2020/12/25 04:11:59;;;;;;;6.50;5.67;;;4.30;63.10;;;;;;5045081;28;40433;-77
2020/12/25 04:14:28;;;;;;;5.83;5.23;;;4.30;63.30;;;;;;5045467;28;39859;-77
2020/12/25 04:16:55;;;;;;;7.60;5.87;;;4.30;63.50;;;;;;5024596;28;36910;-77
2020/12/25 04:19:22;;;;;;;6.20;5.03;;;4.30;63.50;;;;;;5025907;28;34993;-77
2020/12/25 04:21:51;;;;;;;5.73;4.63;;;4.40;63.60;;;;;;5046154;28;39504;-78
2020/12/25 04:24:18;;;;;;;6.90;5.27;;;4.30;63.50;;;;;;5039957;28;40013;-77
2020/12/25 04:26:48;;;;;;;6.33;5.10;;;4.30;63.70;;;;;;5050465;28;36733;-78
2020/12/25 04:29:17;;;;;;;8.70;5.40;;;4.40;63.70;;;;;;5037276;28;37940;-77
2020/12/25 04:31:44;;;;;;;8.07;5.80;;;4.40;63.70;;;;;;5040267;28;39628;-78
2020/12/25 04:34:11;;;;;;;7.33;5.00;;;4.50;63.70;;;;;;5033746;28;39959;-77
2020/12/25 04:36:38;;;;;;;7.13;5.37;;;4.40;63.10;;;;;;5033583;28;37591;-77
2020/12/25 04:39:08;;;;;;;7.90;5.73;;;4.40;63.30;;;;;;5041622;28;37099;-78
2020/12/25 04:41:35;;;;;;;8.17;5.63;;;4.40;63.30;;;;;;5045423;28;40033;-77
2020/12/25 04:44:03;;;;;;;7.83;5.50;;;4.50;63.30;;;;;;5053350;28;39128;-78
2020/12/25 04:46:30;;;;;;;6.33;5.00;;;4.50;63.00;;;;;;5031593;28;37630;-77
2020/12/25 04:48:57;;;;;;;6.10;5.20;;;4.50;62.70;;;;;;5026425;28;35729;-77
2020/12/25 04:51:24;;;;;;;9.27;7.10;;;4.50;63.10;;;;;;5020087;28;38772;-77
2020/12/25 04:53:53;;;;;;;8.90;6.10;;;4.40;63.10;;;;;;5053345;28;38966;-78
2020/12/25 04:56:22;;;;;;;6.37;5.37;;;4.50;63.40;;;;;;5065263;28;37874;-77
2020/12/25 04:58:50;;;;;;;7.27;5.73;;;4.50;63.30;;;;;;5066983;28;37218;-77
2020/12/25 05:01:17;;;;;;;7.17;6.17;;;4.50;63.40;;;;;;5037388;28;38903;-77
2020/12/25 05:03:45;;;;;;;8.00;5.80;;;4.40;63.40;;;;;;5063925;28;38875;-77
2020/12/25 05:06:14;;;;;;;6.80;5.50;;;4.40;63.50;;;;;;5065409;28;38996;-77
2020/12/25 05:08:43;;;;;;;6.97;5.50;;;4.50;63.70;;;;;;5067326;28;37236;-78
2020/12/25 05:11:11;;;;;;;10.87;6.33;;;4.50;63.70;;;;;;5064103;28;40517;-77
2020/12/25 05:13:45;;;;;;;8.60;6.07;;;4.50;63.70;;;;;;5068646;28;38425;-77
2020/12/25 05:16:14;;;;;;;9.40;5.93;;;4.50;63.80;;;;;;5052894;28;39212;-77
2020/12/25 05:18:45;;;;;;;6.63;5.50;;;4.50;64.00;;;;;;5051889;28;37375;-77
2020/12/25 05:21:14;;;;;;;8.50;5.47;;;4.50;64.30;;;;;;5072990;28;39684;-78
2020/12/25 05:23:42;;;;;;;7.40;6.17;;;4.40;64.20;;;;;;5068374;28;39940;-77
2020/12/25 05:26:11;;;;;;;8.80;6.50;;;4.40;64.10;;;;;;5061239;28;38481;-78
2020/12/25 05:28:39;;;;;;;9.10;6.07;;;4.40;64.20;;;;;;5038385;28;36141;-77
2020/12/25 05:31:08;;;;;;;6.70;5.50;;;4.40;64.10;;;;;;5054957;28;40066;-77
2020/12/25 05:33:37;;;;;;;7.83;5.60;;;4.30;63.60;;;;;;5067883;28;38993;-78
2020/12/25 05:36:07;;;;;;;6.90;4.93;;;4.20;64.00;;;;;;5060657;28;38180;-78
2020/12/25 05:38:34;;;;;;;7.73;5.70;;;4.20;64.30;;;;;;5068683;28;37113;-78
2020/12/25 05:41:02;;;;;;;8.20;5.23;;;4.10;64.70;;;;;;5075182;28;40114;-78
2020/12/25 05:43:29;;;;;;;8.17;5.87;;;4.20;64.90;;;;;;5067360;28;40191;-78
2020/12/25 05:45:56;;;;;;;8.80;5.60;;;4.20;65.00;;;;;;5070065;28;38885;-78
2020/12/25 05:48:24;;;;;;;6.47;5.20;;;4.20;65.30;;;;;;5076038;28;38669;-78
2020/12/25 05:50:51;;;;;;;8.80;5.90;;;4.20;65.60;;;;;;5064784;28;40058;-77
2020/12/25 05:53:19;;;;;;;7.80;5.23;;;4.20;65.90;;;;;;5055592;28;38097;-77
2020/12/25 05:55:46;;;;;;;7.30;5.67;;;4.20;65.40;;;;;;5076045;28;38300;-78
2020/12/25 05:58:15;;;;;;;7.10;5.90;;;4.10;65.50;;;;;;5063373;28;36176;-77
2020/12/25 06:00:43;;;;;;;7.00;5.70;;;4.20;65.90;;;;;;5068959;28;39556;-77
2020/12/25 06:03:13;;;;;;;7.80;5.70;;;4.20;66.10;;;;;;5081164;28;39043;-77
2020/12/25 06:05:45;;;;;;;8.10;5.80;;;4.20;66.00;;;;;;5075127;28;39170;-77
2020/12/25 06:08:17;;;;;;;7.43;5.63;;;4.20;66.00;;;;;;5030317;28;35244;-77
2020/12/25 06:10:45;;;;;;;6.57;5.07;;;4.20;66.00;;;;;;5074060;28;40027;-77
2020/12/25 06:13:16;;;;;;;6.80;5.57;;;4.20;65.90;;;;;;5058961;28;39598;-77
2020/12/25 06:15:49;;;;;;;8.10;5.93;;;4.10;66.10;;;;;;5071055;28;38310;-77
2020/12/25 06:18:33;;;;;;;7.13;5.83;;;4.20;66.30;;;;;;5066661;28;37273;-77
2020/12/25 06:21:07;;;;;;;9.07;5.40;;;4.20;65.90;;;;;;5066595;28;40416;-77
2020/12/25 06:23:39;;;;;;;7.03;5.50;;;4.30;66.00;;;;;;5060358;28;39311;-77
2020/12/25 06:26:07;;;;;;;7.57;5.53;;;4.30;66.10;;;;;;5075388;28;37864;-78
2020/12/25 06:28:39;;;;;;;10.53;5.67;;;4.20;66.30;;;;;;5057413;28;35980;-78
2020/12/25 06:31:09;;;;;;;10.13;5.97;;;4.30;66.30;;;;;;5042958;28;38408;-77
2020/12/25 06:33:38;;;;;;;8.43;6.70;;;4.30;65.90;;;;;;5057895;28;38944;-78
2020/12/25 06:36:06;;;;;;;8.30;5.40;;;4.30;66.30;;;;;;5055565;28;38223;-77
2020/12/25 06:38:42;;;;;;;6.77;5.43;;;4.30;66.10;;;;;;5055465;28;36864;-77
2020/12/25 06:41:10;;;;;;;7.03;6.00;;;4.40;65.40;;;;;;5073087;28;40550;-77
2020/12/25 06:43:37;;;;;;;12.00;9.87;;;4.30;65.10;;;;;;5074992;28;40026;-78
2020/12/25 06:46:04;;;;;;;10.47;6.80;;;4.30;65.20;;;;;;5071340;28;38159;-77
2020/12/25 06:48:32;;;;;;;7.47;5.57;;;4.30;65.40;;;;;;5053378;28;36948;-78
2020/12/25 06:51:00;;;;;;;7.93;5.80;;;4.20;65.10;;;;;;5053287;28;39216;-77
2020/12/25 06:53:38;;;;;;;8.50;7.47;;;4.20;65.20;;;;;;5060303;28;38897;-78
2020/12/25 06:56:13;;;;;;;8.50;6.50;;;4.20;65.50;;;;;;5072033;28;38310;-78
2020/12/25 06:58:43;;;;;;;8.30;6.40;;;4.30;65.60;;;;;;5063877;28;36101;-77
2020/12/25 07:01:10;;;;;;;8.90;6.33;;;4.30;65.60;;;;;;5068652;28;40284;-78
2020/12/25 07:03:38;;;;;;;7.80;6.10;;;4.20;65.60;;;;;;5079194;28;39540;-79
2020/12/25 07:06:08;;;;;;;8.87;6.47;;;4.20;65.40;;;;;;5056894;28;36819;-78
2020/12/25 07:08:44;;;;;;;7.10;5.97;;;4.20;65.40;;;;;;5057074;28;36751;-78
2020/12/25 07:11:12;;;;;;;8.07;6.20;;;4.20;65.60;;;;;;5046664;28;38362;-78
2020/12/25 07:13:40;;;;;;;9.17;6.33;;;4.10;65.50;;;;;;5062521;28;39220;-78
2020/12/25 07:16:07;;;;;;;8.23;6.20;;;4.10;65.50;;;;;;5065254;28;38381;-78
2020/12/25 07:18:35;;;;;;;9.10;7.73;;;4.10;65.60;;;;;;5062572;28;37493;-78
2020/12/25 07:21:07;;;;;;;8.20;6.07;;;4.10;65.80;;;;;;5073703;28;39674;-78
2020/12/25 07:23:34;;;;;;;7.30;6.00;;;4.10;65.80;;;;;;5054188;28;38733;-78
2020/12/25 07:26:02;;;;;;;7.70;5.67;;;4.20;66.00;;;;;;5046610;28;36603;-78
2020/12/25 07:28:30;;;;;;;7.20;6.20;;;4.10;65.50;;;;;;5057147;28;38041;-78
2020/12/25 07:30:58;;;;;;;7.33;6.03;;;4.10;65.60;;;;;;5055087;28;40499;-78
2020/12/25 07:33:25;;;;;;;6.27;5.30;;;4.10;65.20;;;;;;5074186;28;38804;-77
2020/12/25 07:35:52;;;;;;;7.57;6.20;;;4.10;64.90;;;;;;5059225;28;38495;-78
2020/12/25 07:38:20;;;;;;;8.77;6.43;;;4.10;65.00;;;;;;5057897;28;38203;-78
2020/12/25 07:40:47;;;;;;;8.50;6.47;;;4.20;65.00;;;;;;5060366;28;39969;-78
2020/12/25 07:43:15;;;;;;;7.47;5.40;;;4.20;64.70;;;;;;5071083;28;39466;-78
2020/12/25 07:45:42;;;;;;;8.40;5.87;;;4.20;65.00;;;;;;5074290;28;37832;-78
2020/12/25 07:48:09;;;;;;;7.87;6.60;;;4.10;65.00;;;;;;5056824;28;37804;-78
2020/12/25 07:50:41;;;;;;;6.67;5.80;;;4.20;64.90;;;;;;5053916;28;39727;-78
2020/12/25 07:53:09;;;;;;;7.23;5.90;;;4.20;64.80;;;;;;5053438;28;38233;-78
2020/12/25 07:55:37;;;;;;;7.40;5.87;;;4.20;64.50;;;;;;5072220;28;38493;-78
2020/12/25 07:58:04;;;;;;;6.17;5.57;;;4.10;64.70;;;;;;5039488;28;36626;-78
2020/12/25 08:00:34;;;;;;;8.50;5.80;;;4.20;65.00;;;;;;5056375;28;40381;-78
2020/12/25 08:03:03;;;;;;;8.70;6.40;;;4.20;64.60;;;;;;5058251;28;39334;-78
2020/12/25 08:05:30;;;;;;;8.50;5.97;;;4.20;64.60;;;;;;5067575;28;38862;-78
2020/12/25 08:07:58;;;;;;;6.90;5.40;;;4.20;64.00;;;;;;5039228;28;36267;-79
2020/12/25 08:10:25;;;;;;;6.03;5.40;;;4.20;64.30;;;;;;5063978;28;39726;-78
2020/12/25 08:12:56;;;;;;;7.60;6.27;;;4.20;64.40;;;;;;5058081;28;40332;-79
2020/12/25 08:15:24;;;;;;;8.20;6.40;;;4.30;64.60;;;;;;5066516;28;38842;-78
2020/12/25 08:17:58;;;;;;;7.77;5.17;;;4.20;63.90;;;;;;5059456;28;37621;-78
2020/12/25 08:20:26;;;;;;;6.27;5.30;;;4.20;64.10;;;;;;5044257;28;38470;-78
2020/12/25 08:22:59;;;;;;;5.70;4.90;;;4.20;64.20;;;;;;5055741;28;40039;-78
2020/12/25 08:25:27;;;;;;;6.57;5.87;;;4.20;64.00;;;;;;5053202;28;38735;-77
2020/12/25 08:27:56;;;;;;;6.83;5.03;;;4.10;64.10;;;;;;5057193;28;37931;-78
2020/12/25 08:30:24;;;;;;;7.10;5.77;;;4.00;64.10;;;;;;5047541;28;38566;-78
2020/12/25 08:33:01;;;;;;;7.00;6.30;;;4.10;64.20;;;;;;5070681;28;39028;-79
2020/12/25 08:35:29;;;;;;;6.50;5.70;;;4.10;64.30;;;;;;5053749;28;38366;-78
2020/12/25 08:37:59;;;;;;;7.30;5.50;;;4.10;64.10;;;;;;5049753;28;35875;-78
2020/12/25 08:40:32;;;;;;;8.30;6.00;;;4.10;64.00;;;;;;5053821;28;40707;-78
2020/12/25 08:43:10;;;;;;;7.50;5.93;;;4.10;65.20;;;;;;5053217;28;38655;-79
2020/12/25 08:45:40;;;;;;;8.40;5.40;;;4.10;64.40;;;;;;5067288;28;38661;-78
2020/12/25 08:48:10;;;;;;;7.87;6.57;;;4.10;64.20;;;;;;5062698;28;37005;-78
2020/12/25 08:50:40;;;;;;;6.97;6.20;;;4.10;64.10;;;;;;5058576;28;39663;-78
2020/12/25 08:53:12;;;;;;;9.33;6.70;;;4.20;64.10;;;;;;5061822;28;38964;-78
2020/12/25 08:55:39;;;;;;;7.70;6.43;;;4.20;64.00;;;;;;5052586;28;36496;-78
2020/12/25 08:58:06;;;;;;;7.90;6.00;;;4.20;64.30;;;;;;5049328;28;36768;-78
2020/12/25 09:00:33;;;;;;;8.20;5.80;;;4.30;64.20;;;;;;5046141;28;38942;-79
2020/12/25 09:03:02;;;;;;;7.70;5.90;;;4.40;64.20;;;;;;5055295;28;39322;-79
2020/12/25 09:05:30;;;;;;;10.03;6.40;;;4.40;64.00;;;;;;5070905;28;37975;-78
2020/12/25 09:07:57;;;;;;;9.73;7.00;;;4.40;64.00;;;;;;5041360;28;36229;-79
2020/12/25 09:10:24;;;;;;;8.30;6.30;;;4.40;64.10;;;;;;5053954;28;39986;-79
2020/12/25 09:12:51;;;;;;;9.27;6.80;;;4.40;64.30;;;;;;5055339;28;39319;-78
2020/12/25 09:15:21;;;;;;;8.70;7.30;;;4.40;64.10;;;;;;5070054;28;38223;-78
2020/12/25 09:17:48;;;;;;;7.83;6.40;;;4.40;64.00;;;;;;5055485;28;37066;-77
2020/12/25 09:20:15;;;;;;;8.10;6.37;;;4.40;64.10;;;;;;5037984;28;38451;-77
2020/12/25 09:22:45;;;;;;;9.73;7.33;;;4.50;64.00;;;;;;5058715;28;39981;-77
2020/12/25 09:25:12;;;;;;;8.57;5.97;;;4.60;63.90;;;;;;5062979;28;38500;-77
2020/12/25 09:27:39;;;;;;;7.43;6.30;;;4.60;63.90;;;;;;5060354;28;37817;-75
2020/12/25 09:30:06;;;;;;;7.90;6.00;;;4.70;63.80;;;;;;5052848;28;40538;-76
2020/12/25 09:32:33;;;;;;;8.17;5.83;;;4.70;63.80;;;;;;5054846;28;39275;-77
2020/12/25 09:35:00;;;;;;;9.23;6.50;;;4.70;63.50;;;;;;5059124;28;38360;-75
2020/12/25 09:37:27;;;;;;;6.87;5.77;;;4.80;63.60;;;;;;5065787;28;38347;-75
2020/12/25 09:39:55;;;;;;;6.20;5.60;;;4.80;63.60;;;;;;5060347;28;40503;-77
2020/12/25 09:42:22;;;;;;;5.77;5.00;;;4.80;62.70;;;;;;5061532;28;39352;-76
2020/12/25 09:44:49;;;;;;;5.00;4.23;;;4.70;62.50;;;;;;5053090;28;36605;-76
2020/12/25 09:47:18;;;;;;;5.37;4.23;;;4.60;62.10;;;;;;5054804;28;36118;-75
2020/12/25 09:49:45;;;;;;;5.50;4.60;;;4.50;62.40;;;;;;5075127;28;40882;-76
2020/12/25 09:52:12;;;;;;;5.40;4.53;;;4.60;62.50;;;;;;5074520;28;39918;-77
2020/12/25 09:54:39;;;;;;;4.77;4.10;;;4.60;62.50;;;;;;5073383;28;38239;-77
2020/12/25 09:57:07;;;;;;;5.83;4.40;;;4.60;63.00;;;;;;5054038;28;35915;-76
2020/12/25 09:59:34;;;;;;;5.33;4.67;;;4.70;62.50;;;;;;5062407;28;39902;-76
2020/12/25 10:02:01;;;;;;;5.40;4.67;;;4.80;62.20;;;;;;5053688;28;40595;-76
2020/12/25 10:04:28;;;;;;;6.10;4.90;;;4.90;61.80;;;;;;5051439;28;37119;-76
2020/12/25 10:06:56;;;;;;;5.80;4.47;;;5.00;62.30;;;;;;5084543;28;37174;-85
2020/12/25 10:09:23;;;;;;;5.93;4.40;;;5.20;62.20;;;;;;5052191;28;38405;-86
2020/12/25 10:11:54;;;;;;;6.33;4.90;;;5.30;61.40;;;;;;5053753;28;38658;-86
2020/12/25 10:14:21;;;;;;;6.83;4.73;;;5.30;60.50;;;;;;5079967;28;38075;-86
2020/12/25 10:16:48;;;;;;;6.23;5.03;;;5.40;60.70;;;;;;5079773;28;37564;-86
2020/12/25 10:19:18;;;;;;;6.87;5.30;;;5.40;60.80;;;;;;5077387;28;40466;-86
2020/12/25 10:21:45;;;;;;;6.73;5.80;;;5.40;60.20;;;;;;5069324;28;39993;-86
2020/12/25 10:24:12;;;;;;;8.13;5.50;;;5.40;60.00;;;;;;5091487;28;38035;-87
2020/12/25 10:26:39;;;;;;;7.67;5.47;;;5.40;59.90;;;;;;5091366;28;38201;-87
2020/12/25 10:29:06;;;;;;;8.07;5.73;;;5.40;59.90;;;;;;5092450;28;40988;-87
2020/12/25 10:31:35;;;;;;;7.80;5.50;;;5.40;59.50;;;;;;5089621;28;39437;-87
2020/12/25 10:34:02;;;;;;;7.97;5.80;;;5.30;59.50;;;;;;5093145;28;38506;-86
2020/12/25 10:36:29;;;;;;;8.13;6.43;;;5.20;59.70;;;;;;5077926;28;38582;-87
2020/12/25 10:38:56;;;;;;;8.73;6.03;;;5.20;60.10;;;;;;5094988;28;40897;-87
2020/12/25 10:41:29;;;;;;;6.80;5.70;;;5.20;60.30;;;;;;5096231;28;40487;-87
2020/12/25 10:43:57;;;;;;;8.50;6.33;;;5.20;60.60;;;;;;5075152;28;38408;-86
2020/12/25 10:46:23;;;;;;;8.40;6.43;;;5.20;60.90;;;;;;5071949;28;36639;-87
2020/12/25 10:48:51;;;;;;;9.50;7.00;;;5.30;61.20;;;;;;5079865;28;40456;-87
2020/12/25 10:51:19;;;;;;;9.00;7.17;;;5.40;61.20;;;;;;5079565;28;39477;-87
2020/12/25 10:53:49;;;;;;;7.83;6.50;;;5.50;61.10;;;;;;5060735;28;37023;-87
2020/12/25 10:56:20;;;;;;;7.03;5.40;;;5.50;61.30;;;;;;5059338;28;36579;-88
2020/12/25 10:58:48;;;;;;;9.60;7.40;;;5.50;61.10;;;;;;5079693;28;39732;-88
2020/12/25 11:01:22;;;;;;;7.17;5.60;;;5.50;61.20;;;;;;5068767;28;39187;-87
2020/12/25 11:03:53;;;;;;;7.73;5.90;;;5.40;60.80;;;;;;5057375;28;38729;-87
2020/12/25 11:06:29;;;;;;;8.90;5.80;;;5.30;60.70;;;;;;5068395;28;37144;-87
2020/12/25 11:08:56;;;;;;;7.70;6.13;;;5.30;61.40;;;;;;5072527;28;39970;-87
2020/12/25 11:11:23;;;;;;;7.97;5.77;;;5.20;61.30;;;;;;5057226;28;39158;-87
2020/12/25 11:13:51;;;;;;;7.13;5.77;;;5.30;61.60;;;;;;5060792;28;39206;-87
2020/12/25 11:16:25;;;;;;;6.00;5.40;;;5.40;61.70;;;;;;5038879;28;35753;-88
2020/12/25 11:18:54;;;;;;;7.67;5.73;;;5.50;61.60;;;;;;5071097;28;39984;-87
2020/12/25 11:21:22;;;;;;;7.50;5.13;;;5.70;61.50;;;;;;5076187;28;39834;-87
2020/12/25 11:23:50;;;;;;;6.37;5.23;;;5.70;60.30;;;;;;5076032;28;38074;-88
2020/12/25 11:26:21;;;;;;;6.60;4.97;;;5.80;60.00;;;;;;5057709;28;35769;-88
2020/12/25 11:28:48;;;;;;;6.10;4.57;;;5.80;59.80;;;;;;5076326;28;40046;-87
2020/12/25 11:31:16;;;;;;;5.67;4.17;;;5.80;59.40;;;;;;5079198;28;38766;-87
2020/12/25 11:33:45;;;;;;;6.80;4.80;;;5.80;59.20;;;;;;5078723;28;38507;-88
2020/12/25 11:36:15;;;;;;;6.80;5.00;;;5.90;58.40;;;;;;5078655;28;37186;-89
2020/12/25 11:38:42;;;;;;;6.20;4.70;;;5.80;58.20;;;;;;5064063;28;38499;-88
2020/12/25 11:41:10;;;;;;;4.73;4.20;;;5.70;58.10;;;;;;5090106;28;40333;-87
2020/12/25 11:43:38;;;;;;;5.30;4.77;;;5.60;58.40;;;;;;5094546;28;38962;-87
2020/12/25 11:46:05;;;;;;;7.90;5.00;;;5.50;58.10;;;;;;5097859;28;38674;-88
2020/12/25 11:48:33;;;;;;;5.97;4.87;;;5.40;58.50;;;;;;5098356;28;40952;-87
2020/12/25 11:51:00;;;;;;;8.90;5.70;;;5.40;58.90;;;;;;5098823;28;40404;-87
2020/12/25 11:53:28;;;;;;;5.60;4.60;;;5.50;59.50;;;;;;5098096;28;39604;-88
2020/12/25 11:55:55;;;;;;;6.20;4.43;;;5.60;59.40;;;;;;5071748;28;37106;-87
2020/12/25 11:58:22;;;;;;;5.80;5.03;;;5.60;59.10;;;;;;5086284;28;40273;-87
2020/12/25 12:00:50;;;;;;;7.10;5.10;;;5.70;59.20;;;;;;5061442;28;38131;-87
2020/12/25 12:03:17;;;;;;;5.10;4.30;;;5.80;59.60;;;;;;5061538;28;38825;-88
2020/12/25 12:05:44;;;;;;;4.23;3.20;;;5.80;59.30;;;;;;5075916;28;36841;-90
2020/12/25 12:08:12;;;;;;;3.50;2.90;;;5.10;58.70;;;;;;5075417;28;39812;-87
2020/12/25 12:10:41;;;;;;;4.57;3.40;;;4.70;59.40;;;;;;5059540;28;38113;-88
2020/12/25 12:13:08;;;;;;;4.60;3.50;;;4.60;60.30;;;;;;5078135;28;38250;-89
2020/12/25 12:15:36;;;;;;;6.63;4.37;;;4.40;60.70;;;;;;5075693;28;38011;-89
2020/12/25 12:18:05;;;;;;;3.57;2.90;;;4.30;61.10;;;;;;5086878;28;39894;-89
2020/12/25 12:20:33;;;;;;;4.83;3.30;;;4.10;61.40;;;;;;5069505;28;39529;-88
2020/12/25 12:23:00;;;;;;;4.40;3.37;;;4.00;62.00;;;;;;5059435;28;36585;-87
2020/12/25 12:25:27;;;;;;;5.10;3.17;;;3.90;62.60;;;;;;5071688;28;37888;-86
2020/12/25 12:27:55;;;;;;;6.70;3.37;;;3.90;63.10;;;;;;5063770;28;39672;-87
2020/12/25 12:30:22;;;;;;;3.20;2.80;;;4.00;64.30;;;;;;5056250;28;37717;-87
2020/12/25 12:32:49;;;;;;;4.30;3.33;;;4.00;63.70;;;;;;5085182;28;38279;-86
2020/12/25 12:35:17;;;;;;;3.83;3.20;;;4.10;63.70;;;;;;5049060;28;36622;-87
2020/12/25 12:37:44;;;;;;;6.27;4.13;;;4.10;64.00;;;;;;5070529;28;39624;-86
2020/12/25 12:40:12;;;;;;;5.10;4.30;;;4.10;63.90;;;;;;5075153;28;39573;-86
2020/12/25 12:42:39;;;;;;;5.10;3.83;;;4.20;64.10;;;;;;5056799;28;36943;-86
2020/12/25 12:45:09;;;;;;;6.00;4.17;;;4.30;64.40;;;;;;5061225;28;37379;-86
2020/12/25 12:47:36;;;;;;;5.20;4.00;;;4.40;64.30;;;;;;5074734;28;41022;-86
2020/12/25 12:50:03;;;;;;;6.13;4.73;;;4.40;63.90;;;;;;5074948;28;39753;-87
2020/12/25 12:52:30;;;;;;;6.10;4.27;;;4.40;64.20;;;;;;5074419;28;38485;-86
2020/12/25 12:55:00;;;;;;;4.63;4.07;;;4.40;64.00;;;;;;5074480;28;37333;-87
2020/12/25 12:57:27;;;;;;;7.93;4.90;;;4.40;64.10;;;;;;5074086;28;39858;-87
2020/12/25 12:59:54;;;;;;;6.13;5.07;;;4.40;64.00;;;;;;5056417;28;37744;-86
2020/12/25 13:02:22;;;;;;;6.10;5.10;;;4.50;64.30;;;;;;5074760;28;37810;-88